createdAt,value
2022-10-22T00:09:24.408Z,0.00
2022-10-22T00:24:24.501Z,0.00
2022-10-22T00:39:24.606Z,0.00
2022-10-22T00:54:24.700Z,0.00
2022-10-22T01:09:25.270Z,0.00
2022-10-22T01:24:24.853Z,0.00
2022-10-22T01:39:25.519Z,0.00
2022-10-22T01:54:27.855Z,0.00
2022-10-22T02:09:28.760Z,0.00
2022-10-22T02:24:32.449Z,0.00
2022-10-22T02:39:34.382Z,0.00
2022-10-22T02:54:34.878Z,0.00
2022-10-22T03:09:35.004Z,0.00
2022-10-22T03:24:36.893Z,0.00
2022-10-22T03:39:37.740Z,0.00
2022-10-22T03:54:40.160Z,0.00
2022-10-22T04:09:40.705Z,0.00
2022-10-22T04:24:40.889Z,0.00
2022-10-22T04:39:41.049Z,0.00
2022-10-22T04:54:41.529Z,0.00
2022-10-22T05:09:41.637Z,0.00
2022-10-22T05:24:41.285Z,0.00
2022-10-22T05:39:41.384Z,0.00
2022-10-22T05:54:42.014Z,11.25
2022-10-22T06:09:42.587Z,16.88
2022-10-22T06:24:45.083Z,33.75
2022-10-22T06:39:47.628Z,39.38
2022-10-22T06:54:48.264Z,84.38
2022-10-22T07:09:48.821Z,118.12
2022-10-22T07:24:50.145Z,151.88
2022-10-22T07:39:50.274Z,185.62
2022-10-22T07:54:49.863Z,163.12
2022-10-22T08:09:51.376Z,202.50
2022-10-22T08:24:51.985Z,348.75
2022-10-22T08:39:53.359Z,258.75
2022-10-22T08:54:52.969Z,253.12
2022-10-22T09:09:53.589Z,253.12
2022-10-22T09:24:55.433Z,433.12
2022-10-22T09:39:55.506Z,151.88
2022-10-22T09:54:55.650Z,129.38
2022-10-22T10:09:55.779Z,174.38
2022-10-22T10:24:55.960Z,348.75
2022-10-22T10:39:56.058Z,315.00
2022-10-22T10:54:56.680Z,500.62
2022-10-22T11:09:57.308Z,2514.38
2022-10-22T11:24:57.910Z,3234.38
2022-10-22T11:39:59.008Z,3909.38
2022-10-22T11:55:00.157Z,2998.12
2022-10-22T12:10:01.230Z,2295.00
2022-10-22T12:25:02.355Z,3982.50
2022-10-22T12:40:03.393Z,3768.75
2022-10-22T12:55:03.085Z,3892.50
2022-10-22T13:10:03.600Z,3678.75
2022-10-22T13:25:03.711Z,3780.00
2022-10-22T13:40:05.657Z,427.50
2022-10-22T13:55:08.416Z,360.00
2022-10-22T14:10:08.585Z,1411.88
2022-10-22T14:25:08.681Z,421.88
2022-10-22T14:40:08.759Z,360.00
2022-10-22T14:55:08.921Z,641.25
2022-10-22T15:10:09.026Z,163.12
2022-10-22T15:25:09.172Z,84.38
2022-10-22T15:40:10.480Z,56.25
2022-10-22T15:55:10.837Z,22.50
2022-10-22T16:10:10.697Z,0.00
2022-10-22T16:25:12.178Z,0.00
2022-10-22T16:40:12.276Z,0.00
2022-10-22T16:55:13.622Z,0.00
2022-10-22T17:10:15.089Z,0.00
2022-10-22T17:25:15.122Z,0.00
2022-10-22T17:40:15.223Z,0.00
2022-10-22T17:55:15.317Z,0.00
2022-10-22T18:10:16.704Z,0.00
2022-10-22T18:25:17.091Z,0.00
2022-10-22T18:40:18.397Z,0.00
2022-10-22T18:55:19.849Z,0.00
2022-10-22T19:10:21.163Z,0.00
2022-10-22T19:25:22.570Z,0.00
2022-10-22T19:55:23.787Z,0.00
2022-10-22T20:10:23.905Z,0.00
2022-10-22T20:25:24.138Z,0.00
2022-10-22T20:40:24.865Z,0.00
2022-10-22T20:55:25.315Z,0.00
2022-10-22T21:10:30.202Z,0.00
2022-10-22T21:25:41.979Z,0.00
2022-10-22T21:40:43.958Z,0.00
2022-10-22T21:55:44.010Z,0.00
2022-10-22T22:10:44.988Z,0.00
2022-10-22T22:25:45.002Z,0.00
2022-10-22T22:40:46.425Z,0.00
2022-10-22T22:55:47.795Z,0.00
2022-10-22T23:10:47.963Z,0.00
2022-10-22T23:25:48.150Z,0.00
2022-10-22T23:40:49.484Z,0.00
2022-10-22T23:55:50.818Z,0.00
